Time;durP1;ratioP1;P1;durP2;ratioP2;P2;SDS_P1;SDS_P2;PMS_P1;PMS_P2;Temp;Humidity;BMP_temperature;BMP_pressure;BME280_temperature;BME280_humidity;BME280_pressure;Samples;Min_cycle;Max_cycle;Signal;HPM_P1;HPM_P2
2022/03/13 00:00:59;;;;;;;7.65;5.15;;;;;;;-9.39;93.82;96024.50;5107906;27;20038;-47
2022/03/13 00:03:27;;;;;;;11.40;5.00;;;;;;;-9.39;94.54;96024.50;5104379;27;20117;-46
2022/03/13 00:05:54;;;;;;;9.65;5.35;;;;;;;-9.42;95.36;96021.25;5089793;27;20051;-49
2022/03/13 00:08:23;;;;;;;11.98;6.88;;;;;;;-9.40;96.31;96022.88;5108411;27;20055;-47
2022/03/13 00:11:16;;;;;;;12.30;6.25;;;;;;;-9.36;96.35;96024.31;5112556;27;20039;-47
2022/03/13 00:13:50;;;;;;;8.80;6.03;;;;;;;-9.37;96.03;96022.72;5107909;27;20127;-47
2022/03/13 00:16:18;;;;;;;10.25;5.35;;;;;;;-9.44;96.89;96023.03;5108178;27;20095;-47
2022/03/13 00:18:48;;;;;;;9.52;6.63;;;;;;;-9.43;97.06;96018.81;5109807;27;20039;-47
2022/03/13 00:21:18;;;;;;;12.07;5.45;;;;;;;-9.42;96.85;96016.22;5112166;27;20051;-47
2022/03/13 00:23:46;;;;;;;10.82;4.93;;;;;;;-9.40;96.66;96012.78;5112343;27;20114;-47
2022/03/13 00:26:15;;;;;;;6.90;4.88;;;;;;;-9.39;96.52;96015.22;5110648;27;20047;-47
2022/03/13 00:28:44;;;;;;;18.48;7.07;;;;;;;-9.39;96.00;96016.94;5108005;27;20043;-46
2022/03/13 00:31:11;;;;;;;13.52;8.90;;;;;;;-9.44;95.79;96017.97;5107262;27;20043;-47
2022/03/13 00:33:38;;;;;;;15.85;8.10;;;;;;;-9.45;95.69;96006.28;5105208;27;20127;-47
2022/03/13 00:36:06;;;;;;;8.45;6.07;;;;;;;-9.48;95.81;96005.63;5106600;27;20058;-49
2022/03/13 00:38:32;;;;;;;12.65;5.57;;;;;;;-9.47;95.59;96014.78;5112041;27;20094;-47
2022/03/13 00:40:59;;;;;;;10.23;7.15;;;;;;;-9.43;95.60;96016.28;5104175;28;20051;-48
2022/03/13 00:43:29;;;;;;;8.75;6.82;;;;;;;-9.44;95.61;96007.88;5109929;27;20043;-47
2022/03/13 00:45:56;;;;;;;16.58;6.57;;;;;;;-9.45;95.65;96016.34;5108828;27;20047;-48
2022/03/13 00:48:25;;;;;;;12.98;6.63;;;;;;;-9.45;96.00;96011.31;5105983;28;20046;-45
2022/03/13 00:50:53;;;;;;;10.93;5.82;;;;;;;-9.39;95.81;96014.41;5105951;27;20104;-47
2022/03/13 00:53:20;;;;;;;12.80;8.48;;;;;;;-9.42;95.98;96016.22;5109709;28;20047;-47
2022/03/13 00:55:47;;;;;;;16.83;8.38;;;;;;;-9.37;96.64;96012.63;5111684;28;20043;-47
2022/03/13 00:58:13;;;;;;;12.20;6.10;;;;;;;-9.44;97.75;96007.88;5110747;28;20150;-47
2022/03/13 01:00:40;;;;;;;15.68;8.02;;;;;;;-9.44;99.88;96007.06;5107493;28;20046;-47
2022/03/13 01:03:28;;;;;;;8.98;6.60;;;;;;;-9.43;100.00;96009.53;5111894;28;20131;-47
2022/03/13 01:05:55;;;;;;;14.20;8.63;;;;;;;-9.33;100.00;96001.47;5107443;28;20040;-47
2022/03/13 01:08:21;;;;;;;18.65;10.70;;;;;;;-9.28;100.00;95986.91;5113634;28;20501;-46
2022/03/13 01:10:50;;;;;;;8.70;6.75;;;;;;;-9.32;99.54;95993.81;5106105;28;20047;-47
2022/03/13 01:13:17;;;;;;;18.20;7.82;;;;;;;-9.36;98.85;95999.09;5110178;28;20063;-47
2022/03/13 01:15:48;;;;;;;11.18;7.07;;;;;;;-9.45;97.15;95998.69;5114708;27;20050;-50
2022/03/13 01:18:16;;;;;;;9.85;7.07;;;;;;;-9.56;96.54;95988.38;5111047;27;20035;-49
2022/03/13 01:20:46;;;;;;;11.00;6.72;;;;;;;-9.65;96.17;95989.66;5116175;27;20074;-48
2022/03/13 01:23:15;;;;;;;6.43;4.07;;;;;;;-9.87;96.75;95974.78;5110772;27;20047;-47
2022/03/13 01:25:41;;;;;;;11.57;5.97;;;;;;;-9.77;97.03;95986.94;5110953;27;20047;-47
2022/03/13 01:28:11;;;;;;;11.75;5.15;;;;;;;-9.74;96.84;95979.19;5111139;27;20455;-49
2022/03/13 01:30:38;;;;;;;10.63;5.57;;;;;;;-9.76;96.34;95975.94;5111386;27;20112;-47
2022/03/13 01:33:05;;;;;;;9.00;6.78;;;;;;;-9.76;96.45;95971.72;5114984;27;20092;-47
2022/03/13 01:35:32;;;;;;;12.20;5.75;;;;;;;-9.80;95.88;95975.28;5112020;27;20043;-47
2022/03/13 01:37:59;;;;;;;13.93;5.03;;;;;;;-9.96;94.60;95961.84;5117064;27;20073;-47
2022/03/13 01:40:26;;;;;;;21.63;7.57;;;;;;;-10.07;94.21;95978.31;5109336;27;20044;-47
2022/03/13 01:42:55;;;;;;;6.78;5.25;;;;;;;-10.16;94.79;95977.97;5109477;27;20436;-47
2022/03/13 01:45:25;;;;;;;18.75;4.68;;;;;;;-10.37;95.21;95960.50;5116528;27;20096;-49
2022/03/13 01:47:53;;;;;;;6.53;4.47;;;;;;;-10.41;95.87;95969.09;5113625;27;20071;-47
2022/03/13 01:50:20;;;;;;;13.00;4.93;;;;;;;-10.42;96.98;95973.34;5105625;27;20119;-47
2022/03/13 01:52:48;;;;;;;10.18;5.57;;;;;;;-10.47;97.19;95965.19;5092040;28;20071;-47
2022/03/13 01:55:16;;;;;;;6.60;4.30;;;;;;;-10.44;97.07;95974.28;5111020;27;20043;-47
2022/03/13 01:57:45;;;;;;;6.93;4.85;;;;;;;-10.45;97.27;95980.22;5110814;27;20050;-47
2022/03/13 02:00:13;;;;;;;9.98;4.93;;;;;;;-10.47;97.14;95964.38;5091749;28;20098;-48
2022/03/13 02:02:44;;;;;;;6.55;5.10;;;;;;;-10.45;97.21;95972.66;5110781;27;20044;-50
2022/03/13 02:05:29;;;;;;;11.10;6.15;;;;;;;-10.55;96.98;95971.47;5111073;27;20058;-47
2022/03/13 02:07:56;;;;;;;11.80;7.13;;;;;;;-10.57;97.97;95974.06;5114833;27;20043;-51
2022/03/13 02:10:23;;;;;;;8.95;4.03;;;;;;;-10.54;98.64;95968.09;5110581;27;20059;-47
2022/03/13 02:12:50;;;;;;;15.23;6.60;;;;;;;-10.51;99.07;95973.78;5111415;27;20039;-48
2022/03/13 02:15:17;;;;;;;19.67;7.25;;;;;;;-10.54;99.36;95963.03;5112951;27;20043;-47
2022/03/13 02:17:43;;;;;;;12.27;5.47;;;;;;;-10.37;99.20;95970.56;5112490;27;20043;-46
2022/03/13 02:20:21;;;;;;;10.95;6.43;;;;;;;-10.40;98.91;95958.16;5111576;27;20444;-46
2022/03/13 02:22:51;;;;;;;13.40;6.00;;;;;;;-10.55;99.19;95958.88;5117455;27;20043;-47
2022/03/13 02:25:22;;;;;;;6.18;4.22;;;;;;;-10.50;99.16;95972.06;5111932;27;20238;-47
2022/03/13 02:27:50;;;;;;;12.70;4.95;;;;;;;-10.51;99.20;95983.84;5113857;27;22028;-47
2022/03/13 02:30:22;;;;;;;15.82;6.72;;;;;;;-10.51;98.19;95983.06;5116713;27;20474;-47
2022/03/13 02:32:49;;;;;;;11.10;5.78;;;;;;;-10.54;98.49;95978.16;5113470;27;20100;-47
2022/03/13 02:35:17;;;;;;;6.60;4.47;;;;;;;-10.53;98.85;95974.72;5115031;27;20576;-47
2022/03/13 02:37:44;;;;;;;10.48;6.53;;;;;;;-10.56;98.98;95982.44;5120676;27;20064;-46
2022/03/13 02:40:24;;;;;;;9.60;5.75;;;;;;;-10.51;99.36;95970.47;5111440;27;20039;-49
2022/03/13 02:42:52;;;;;;;12.02;5.57;;;;;;;-10.50;99.01;95970.38;5112595;27;20124;-49
2022/03/13 02:45:34;;;;;;;8.15;4.78;;;;;;;-10.53;98.16;95979.75;5116248;27;20051;-49
2022/03/13 02:48:02;;;;;;;10.15;5.43;;;;;;;-10.59;98.25;95979.19;5113671;27;20093;-46
2022/03/13 02:50:29;;;;;;;5.65;4.45;;;;;;;-10.54;98.45;95978.16;5111815;27;20104;-48
2022/03/13 02:52:56;;;;;;;7.68;5.45;;;;;;;-10.56;98.67;95980.75;5112814;27;20758;-48
2022/03/13 02:55:24;;;;;;;12.00;6.75;;;;;;;-10.69;98.50;95975.47;5116557;27;20769;-48
2022/03/13 02:57:52;;;;;;;10.07;5.18;;;;;;;-10.60;98.54;95975.03;5111406;27;20500;-50
2022/03/13 03:00:21;;;;;;;7.75;4.97;;;;;;;-10.55;98.48;95976.50;5112115;27;20087;-47
2022/03/13 03:02:48;;;;;;;12.82;6.43;;;;;;;-10.65;98.27;95966.06;5108089;27;20164;-47
2022/03/13 03:05:15;;;;;;;19.65;5.70;;;;;;;-10.62;97.90;95976.81;5114468;27;20139;-48
2022/03/13 03:07:42;;;;;;;8.07;5.93;;;;;;;-10.67;97.92;95978.72;5112193;27;20043;-49
2022/03/13 03:10:12;;;;;;;10.82;5.38;;;;;;;-10.77;98.31;95975.00;5108822;27;20413;-49
2022/03/13 03:12:39;;;;;;;9.75;4.15;;;;;;;-10.79;98.45;95979.31;5110122;27;20047;-47
2022/03/13 03:15:06;;;;;;;8.70;4.50;;;;;;;-10.76;98.33;95974.16;5109335;27;20052;-46
2022/03/13 03:17:33;;;;;;;8.60;4.07;;;;;;;-10.72;98.22;95970.59;5109186;27;20046;-47
2022/03/13 03:20:00;;;;;;;9.20;5.32;;;;;;;-10.72;97.96;95975.63;5113088;27;20039;-47
2022/03/13 03:22:27;;;;;;;6.78;3.83;;;;;;;-10.78;98.19;95971.69;5111227;27;20046;-47
2022/03/13 03:24:54;;;;;;;11.88;4.07;;;;;;;-10.75;98.14;95975.75;5111181;27;20043;-47
2022/03/13 03:27:20;;;;;;;8.40;5.63;;;;;;;-10.76;98.06;95979.19;5111121;27;20043;-46
2022/03/13 03:29:48;;;;;;;8.77;5.57;;;;;;;-10.75;98.28;95970.72;5111665;27;20047;-47
2022/03/13 03:32:14;;;;;;;6.10;4.47;;;;;;;-10.75;98.42;95965.69;5109850;27;20485;-47
2022/03/13 03:34:41;;;;;;;10.68;4.20;;;;;;;-10.74;98.63;95969.03;5111949;27;20054;-49
2022/03/13 03:37:08;;;;;;;7.93;4.82;;;;;;;-10.72;98.81;95970.59;5116253;27;20051;-47
2022/03/13 03:39:35;;;;;;;12.57;5.50;;;;;;;-10.72;99.40;95975.63;5108785;27;20421;-47
2022/03/13 03:42:02;;;;;;;7.57;5.30;;;;;;;-10.68;99.95;95982.13;5109168;27;20040;-47
2022/03/13 03:44:29;;;;;;;7.63;3.72;;;;;;;-10.65;99.97;95976.97;5114725;27;20071;-46
2022/03/13 03:46:56;;;;;;;8.52;3.38;;;;;;;-10.60;99.99;95970.00;5112290;27;20035;-48
2022/03/13 03:49:23;;;;;;;6.78;4.63;;;;;;;-10.58;99.70;95963.19;5112249;27;20092;-48
2022/03/13 03:51:51;;;;;;;12.05;7.55;;;;;;;-10.58;99.76;95963.19;5109654;27;20044;-48
2022/03/13 03:54:18;;;;;;;12.88;4.60;;;;;;;-10.55;99.86;95951.34;5109313;27;20049;-46
2022/03/13 03:56:45;;;;;;;13.82;7.00;;;;;;;-10.46;100.00;95945.84;5106767;27;20101;-48
2022/03/13 03:59:12;;;;;;;7.90;5.25;;;;;;;-10.38;100.00;95943.78;5110642;27;20133;-47
2022/03/13 04:01:41;;;;;;;6.93;5.10;;;;;;;-10.29;100.00;95948.31;5108435;27;20059;-47
2022/03/13 04:04:15;;;;;;;10.98;5.57;;;;;;;-10.18;100.00;95941.03;5109682;27;20489;-47
2022/03/13 04:06:43;;;;;;;11.63;7.25;;;;;;;-10.06;100.00;95938.81;5107679;27;20096;-47
2022/03/13 04:09:11;;;;;;;6.57;3.88;;;;;;;-10.05;100.00;95931.16;5109232;27;20048;-47
2022/03/13 04:11:38;;;;;;;15.93;6.30;;;;;;;-9.96;100.00;95945.00;5108999;27;20100;-46
2022/03/13 04:14:05;;;;;;;8.52;5.45;;;;;;;-9.92;100.00;95943.13;5110244;27;20077;-47
2022/03/13 04:16:32;;;;;;;9.32;4.20;;;;;;;-9.83;100.00;95946.03;5110019;27;20504;-47
2022/03/13 04:18:59;;;;;;;9.27;4.35;;;;;;;-9.73;100.00;95941.31;5110043;27;20071;-48
2022/03/13 04:21:26;;;;;;;9.00;4.65;;;;;;;-9.71;100.00;95943.75;5112299;27;20523;-47
2022/03/13 04:23:53;;;;;;;8.55;5.75;;;;;;;-9.66;100.00;95946.84;5109653;27;20054;-47
2022/03/13 04:26:25;;;;;;;8.57;4.63;;;;;;;-9.70;100.00;95930.25;5109117;27;20497;-47
2022/03/13 04:28:52;;;;;;;9.45;6.10;;;;;;;-9.62;100.00;95928.13;5112056;27;20143;-47
2022/03/13 04:31:19;;;;;;;8.32;6.55;;;;;;;-9.47;100.00;95932.38;5109469;27;20051;-50
2022/03/13 04:33:47;;;;;;;14.88;10.02;;;;;;;-9.37;100.00;95931.88;5111087;27;20056;-46
2022/03/13 04:36:17;;;;;;;13.82;7.32;;;;;;;-9.25;100.00;95931.25;5106744;27;20047;-47
2022/03/13 04:38:44;;;;;;;18.67;8.82;;;;;;;-9.15;100.00;95931.53;5114938;27;20090;-47
2022/03/13 04:41:11;;;;;;;22.08;12.00;;;;;;;-9.07;100.00;95935.28;5101997;27;20096;-48
2022/03/13 04:43:38;;;;;;;21.95;11.00;;;;;;;-8.91;100.00;95942.00;5107090;27;20861;-48
2022/03/13 04:46:06;;;;;;;17.63;10.55;;;;;;;-8.86;100.00;95942.56;5105485;27;20082;-47
2022/03/13 04:48:34;;;;;;;14.75;9.82;;;;;;;-8.74;100.00;95941.09;5105445;27;20055;-50
2022/03/13 04:51:02;;;;;;;26.58;12.23;;;;;;;-8.65;100.00;95938.84;5106421;28;20434;-47
2022/03/13 04:53:30;;;;;;;27.52;12.70;;;;;;;-8.58;100.00;95941.84;5107255;27;20055;-47
2022/03/13 04:55:56;;;;;;;26.45;7.22;;;;;;;-8.63;100.00;95937.97;5105629;28;20488;-51
2022/03/13 04:58:24;;;;;;;14.50;8.73;;;;;;;-8.60;100.00;95937.81;5106914;27;20035;-47
2022/03/13 05:00:53;;;;;;;17.30;10.40;;;;;;;-8.70;100.00;95948.41;5104495;28;20043;-47
2022/03/13 05:03:20;;;;;;;26.10;9.73;;;;;;;-8.81;100.00;95930.50;5104062;28;20070;-46
2022/03/13 05:05:48;;;;;;;12.02;5.32;;;;;;;-8.82;100.00;95931.41;5104138;28;20043;-48
2022/03/13 05:08:15;;;;;;;13.77;5.85;;;;;;;-8.91;100.00;95926.84;5108075;28;20048;-48
2022/03/13 05:10:44;;;;;;;17.55;8.20;;;;;;;-8.79;100.00;95948.91;5109826;28;20443;-47
2022/03/13 05:13:13;;;;;;;8.70;4.95;;;;;;;-8.83;100.00;95947.47;5104009;28;20046;-51
2022/03/13 05:15:41;;;;;;;4.47;2.42;;;;;;;-8.88;100.00;95946.91;5109297;27;20059;-48
2022/03/13 05:18:08;;;;;;;9.85;5.93;;;;;;;-8.85;100.00;95949.25;5108082;28;20039;-47
2022/03/13 05:20:35;;;;;;;14.73;7.78;;;;;;;-8.74;100.00;95952.00;5109843;28;20437;-47
2022/03/13 05:23:04;;;;;;;16.20;8.13;;;;;;;-8.66;100.00;95954.94;5081432;28;20039;-48
2022/03/13 05:25:32;;;;;;;10.85;8.10;;;;;;;-8.51;100.00;95947.38;5109911;28;20063;-48
2022/03/13 05:27:59;;;;;;;15.65;9.55;;;;;;;-8.38;100.00;95953.31;5109550;28;20047;-47
2022/03/13 05:30:27;;;;;;;16.52;9.30;;;;;;;-8.22;100.00;95962.56;5108068;28;20067;-48
2022/03/13 05:32:55;;;;;;;15.40;8.55;;;;;;;-8.10;100.00;95965.22;5107629;28;20493;-48
2022/03/13 05:35:23;;;;;;;18.55;7.72;;;;;;;-7.97;99.18;95964.50;5110882;28;20056;-48
2022/03/13 05:37:50;;;;;;;12.07;7.40;;;;;;;-7.90;98.31;95961.53;5109244;28;20053;-48
2022/03/13 05:40:19;;;;;;;9.95;6.80;;;;;;;-7.88;96.85;95964.75;5109917;27;20052;-48
2022/03/13 05:42:50;;;;;;;18.65;7.78;;;;;;;-8.07;95.17;95961.69;5105359;28;20036;-47
2022/03/13 05:45:19;;;;;;;12.68;5.50;;;;;;;-8.11;94.76;95970.34;5109729;28;20063;-48
2022/03/13 05:47:48;;;;;;;17.70;9.38;;;;;;;-7.95;95.17;95966.03;5107901;28;20048;-48
2022/03/13 05:50:16;;;;;;;13.30;8.80;;;;;;;-7.79;94.84;95960.09;5106590;28;20044;-47
2022/03/13 05:52:44;;;;;;;23.60;14.82;;;;;;;-7.60;94.89;95975.78;5108548;28;20044;-50
2022/03/13 05:55:11;;;;;;;21.52;9.57;;;;;;;-7.46;94.00;95974.16;5107316;27;20051;-48
2022/03/13 05:57:38;;;;;;;15.98;8.13;;;;;;;-7.40;93.17;95981.38;5109108;28;20468;-49
2022/03/13 06:00:08;;;;;;;21.27;10.60;;;;;;;-7.28;92.52;95980.63;5103233;27;20055;-47
2022/03/13 06:02:41;;;;;;;26.77;13.50;;;;;;;-7.21;92.33;95981.88;5107343;27;20052;-47
2022/03/13 06:05:12;;;;;;;27.27;14.07;;;;;;;-7.05;92.33;95991.09;5105487;27;20513;-48
2022/03/13 06:07:40;;;;;;;25.83;13.15;;;;;;;-7.00;91.03;95986.56;5106817;27;20043;-48
2022/03/13 06:10:13;;;;;;;19.95;11.18;;;;;;;-6.78;92.34;95986.84;5109014;27;20043;-47
2022/03/13 06:12:40;;;;;;;30.80;16.45;;;;;;;-6.62;90.94;95983.34;5112050;27;20308;-50
2022/03/13 06:15:09;;;;;;;28.45;13.90;;;;;;;-6.52;89.52;95991.97;5112472;27;20510;-47
2022/03/13 06:17:40;;;;;;;31.85;15.95;;;;;;;-6.38;88.83;95991.13;5112180;27;20039;-47
2022/03/13 06:20:10;;;;;;;27.48;11.38;;;;;;;-6.25;88.40;95991.13;5109666;27;20050;-47
2022/03/13 06:22:39;;;;;;;27.58;9.93;;;;;;;-6.18;88.18;95992.38;5111141;27;20124;-48
2022/03/13 06:25:09;;;;;;;26.95;11.23;;;;;;;-6.07;87.91;95978.97;5115543;27;20077;-47
2022/03/13 06:27:38;;;;;;;13.32;7.60;;;;;;;-5.90;87.07;95990.56;5113553;27;20055;-51
2022/03/13 06:30:13;;;;;;;24.98;9.02;;;;;;;-6.01;85.90;95979.41;5112013;27;20039;-48
2022/03/13 06:32:42;;;;;;;25.85;10.02;;;;;;;-5.93;84.96;95981.41;5112232;27;20541;-47
2022/03/13 06:35:10;;;;;;;15.13;8.40;;;;;;;-5.71;84.99;95985.84;5113038;27;20046;-48
2022/03/13 06:37:38;;;;;;;17.52;9.18;;;;;;;-5.50;84.59;95985.34;5113243;27;20043;-48
2022/03/13 06:40:13;;;;;;;20.10;8.82;;;;;;;-5.35;83.68;95976.69;5110320;27;20451;-48
2022/03/13 06:42:40;;;;;;;17.05;7.70;;;;;;;-5.27;82.21;95979.53;5111580;27;20115;-47
2022/03/13 06:45:10;;;;;;;21.77;8.93;;;;;;;-5.20;82.08;95990.88;5111116;27;20046;-48
2022/03/13 06:47:38;;;;;;;19.25;10.50;;;;;;;-5.16;80.80;95985.59;5117431;27;20475;-49
2022/03/13 06:50:08;;;;;;;20.98;10.20;;;;;;;-5.09;81.59;95986.81;5112108;27;20054;-48
2022/03/13 06:52:36;;;;;;;19.90;10.85;;;;;;;-4.98;81.61;95983.50;5110789;27;20071;-52
2022/03/13 06:55:04;;;;;;;18.42;10.95;;;;;;;-4.89;80.58;95988.75;5094587;27;20119;-47
2022/03/13 06:57:31;;;;;;;19.92;11.13;;;;;;;-4.78;78.79;95979.56;5113655;27;20468;-51
2022/03/13 06:59:58;;;;;;;19.20;9.25;;;;;;;-5.06;76.91;95966.25;5112726;27;20064;-47
2022/03/13 07:02:25;;;;;;;37.38;13.05;;;;;;;-4.88;76.36;95979.41;5111623;27;20521;-50
2022/03/13 07:04:52;;;;;;;28.85;15.40;;;;;;;-4.71;76.95;95975.69;5114131;27;20039;-47
2022/03/13 07:07:19;;;;;;;31.98;12.25;;;;;;;-4.47;76.66;95983.28;5114706;27;20047;-47
2022/03/13 07:09:45;;;;;;;24.60;11.57;;;;;;;-4.36;75.10;95977.44;5115466;27;20505;-48
2022/03/13 07:12:13;;;;;;;23.77;12.25;;;;;;;-4.44;73.47;95983.06;5113974;27;20040;-48
2022/03/13 07:14:45;;;;;;;26.33;13.88;;;;;;;-4.31;73.73;95983.00;5109782;27;20096;-47
2022/03/13 07:17:13;;;;;;;22.50;10.20;;;;;;;-4.41;73.92;95987.94;5112200;27;20040;-46
2022/03/13 07:19:43;;;;;;;27.30;11.18;;;;;;;-4.50;72.88;95984.34;5111534;27;20040;-46
2022/03/13 07:22:11;;;;;;;20.40;10.07;;;;;;;-4.33;73.42;95984.84;5112952;27;20169;-48
2022/03/13 07:24:43;;;;;;;9.70;4.88;;;;;;;-4.56;73.09;95944.06;5111828;27;20040;-47
2022/03/13 07:27:10;;;;;;;21.85;9.23;;;;;;;-4.52;73.53;95983.63;5113975;27;20043;-46
2022/03/13 07:29:36;;;;;;;31.40;12.23;;;;;;;-4.56;74.83;95984.75;5114117;27;20046;-47
2022/03/13 07:32:04;;;;;;;22.80;10.23;;;;;;;-4.39;75.01;95970.00;5113335;27;20378;-48
2022/03/13 07:34:31;;;;;;;21.55;10.73;;;;;;;-4.25;74.92;95982.53;5111689;27;20449;-48
2022/03/13 07:36:57;;;;;;;20.38;9.85;;;;;;;-4.16;75.84;95987.00;5113565;27;20397;-47
2022/03/13 07:39:25;;;;;;;18.85;8.07;;;;;;;-4.25;76.46;95987.63;5112800;27;20043;-46
2022/03/13 07:41:53;;;;;;;17.90;8.15;;;;;;;-4.17;76.54;95980.28;5110482;27;20036;-46
2022/03/13 07:44:21;;;;;;;14.55;7.35;;;;;;;-4.12;76.15;95983.28;5110033;27;20100;-47
2022/03/13 07:46:50;;;;;;;20.88;10.20;;;;;;;-3.99;74.40;95977.31;5111146;27;20055;-47
2022/03/13 07:49:17;;;;;;;19.45;10.82;;;;;;;-3.90;73.71;95976.63;5107836;27;20051;-46
2022/03/13 07:51:44;;;;;;;14.85;7.80;;;;;;;-3.81;73.74;95960.66;5110201;27;20050;-46
2022/03/13 07:54:11;;;;;;;23.30;11.98;;;;;;;-3.67;72.86;95968.09;5109974;27;20044;-49
2022/03/13 07:56:38;;;;;;;17.65;8.68;;;;;;;-3.53;71.98;95964.50;5110578;27;20092;-46
2022/03/13 07:59:04;;;;;;;35.13;13.60;;;;;;;-3.24;72.08;95978.50;5111753;27;20047;-49
2022/03/13 08:01:31;;;;;;;21.10;12.13;;;;;;;-3.00;71.43;95976.63;5110717;27;20131;-46
2022/03/13 08:04:04;;;;;;;15.68;8.57;;;;;;;-2.92;68.96;95969.19;5111499;27;20040;-46
2022/03/13 08:06:35;;;;;;;19.48;9.98;;;;;;;-2.64;68.68;95961.91;5111296;27;20766;-47
2022/03/13 08:09:04;;;;;;;8.05;5.47;;;;;;;-2.68;68.86;95960.56;5111261;27;20039;-48
2022/03/13 08:11:34;;;;;;;4.45;3.05;;;;;;;-2.67;67.69;95957.06;5105580;27;20054;-46
2022/03/13 08:14:03;;;;;;;18.25;9.77;;;;;;;-2.71;68.26;95945.47;5107172;27;20130;-51
2022/03/13 08:16:30;;;;;;;13.73;6.88;;;;;;;-2.55;68.00;95955.28;5111529;27;20047;-46
2022/03/13 08:18:57;;;;;;;18.33;8.20;;;;;;;-2.32;68.96;95943.25;5108320;27;20523;-46
2022/03/13 08:21:24;;;;;;;16.58;9.65;;;;;;;-2.06;68.01;95950.53;5107457;27;20050;-47
2022/03/13 08:23:51;;;;;;;20.58;10.88;;;;;;;-1.85;68.20;95948.78;5108714;27;20483;-48
2022/03/13 08:26:18;;;;;;;16.83;7.95;;;;;;;-1.75;66.00;95943.69;5115103;27;20043;-47
2022/03/13 08:28:45;;;;;;;20.30;10.52;;;;;;;-1.60;66.79;95942.44;5108471;27;20055;-46
2022/03/13 08:31:12;;;;;;;20.02;9.80;;;;;;;-1.44;64.98;95952.19;5109539;27;20062;-47
2022/03/13 08:33:42;;;;;;;20.02;9.35;;;;;;;-1.26;65.44;95951.56;5107444;27;20042;-46
2022/03/13 08:36:08;;;;;;;15.93;7.13;;;;;;;-1.24;63.38;95936.88;5105562;27;20050;-47
2022/03/13 08:38:35;;;;;;;17.13;9.38;;;;;;;-1.10;62.13;95939.06;5111649;27;20769;-46
2022/03/13 08:41:02;;;;;;;11.00;2.90;;;;;;;-1.05;62.68;95942.06;5107311;27;20043;-46
2022/03/13 08:43:29;;;;;;;15.43;9.13;;;;;;;-0.98;61.59;95927.81;5102930;27;20427;-46
2022/03/13 08:45:56;;;;;;;18.70;6.65;;;;;;;-0.98;60.91;95932.13;5107970;27;20875;-48
2022/03/13 08:48:22;;;;;;;10.10;5.85;;;;;;;-0.92;61.14;95935.91;5107927;27;20043;-46
2022/03/13 08:50:50;;;;;;;20.25;9.15;;;;;;;-1.16;61.65;95940.41;5104844;27;20047;-47
2022/03/13 08:53:16;;;;;;;14.35;7.45;;;;;;;-0.91;58.80;95934.97;5106564;28;20151;-49
2022/03/13 08:55:43;;;;;;;20.80;7.97;;;;;;;-0.67;58.15;95935.38;5106982;27;20042;-47
2022/03/13 08:58:10;;;;;;;21.13;10.50;;;;;;;-0.48;58.05;95923.53;5108444;27;20439;-46
2022/03/13 09:00:43;;;;;;;18.08;9.95;;;;;;;-0.34;58.68;95932.53;5105789;27;20047;-50
2022/03/13 09:03:10;;;;;;;14.13;7.03;;;;;;;-0.33;55.50;95911.94;5105447;28;21684;-47
2022/03/13 09:05:37;;;;;;;15.23;6.35;;;;;;;-0.11;54.41;95920.25;5107043;27;20064;-45
2022/03/13 09:08:04;;;;;;;15.77;7.43;;;;;;;-0.06;55.18;95918.09;5106326;28;20044;-46
2022/03/13 09:10:32;;;;;;;18.77;8.40;;;;;;;-0.12;54.02;95923.78;5108412;28;20051;-46
2022/03/13 09:12:58;;;;;;;9.98;4.28;;;;;;;0.02;52.91;95910.53;5107428;28;25750;-46
2022/03/13 09:15:25;;;;;;;23.48;8.30;;;;;;;0.25;52.88;95915.31;5112493;27;20097;-51
2022/03/13 09:17:53;;;;;;;17.20;8.15;;;;;;;0.37;52.93;95919.31;5109024;28;20043;-46
2022/03/13 09:20:22;;;;;;;20.30;9.65;;;;;;;0.44;53.42;95909.31;5111094;28;20432;-47
2022/03/13 09:22:49;;;;;;;28.42;11.95;;;;;;;0.48;51.98;95911.44;5110303;28;20055;-48
2022/03/13 09:25:18;;;;;;;17.95;8.80;;;;;;;0.40;50.03;95903.69;5111711;28;20047;-47
2022/03/13 09:27:45;;;;;;;18.10;7.57;;;;;;;0.52;51.96;95902.53;5111523;28;20566;-46
2022/03/13 09:30:12;;;;;;;16.85;8.45;;;;;;;0.53;52.72;95900.78;5108041;28;20109;-47
2022/03/13 09:32:40;;;;;;;14.00;7.45;;;;;;;0.60;49.76;95899.25;5108890;28;20109;-48
2022/03/13 09:35:08;;;;;;;13.20;6.80;;;;;;;0.68;49.26;95904.47;5109181;28;20040;-47
2022/03/13 09:37:37;;;;;;;13.75;7.28;;;;;;;0.93;50.95;95905.53;5113577;27;20524;-47
2022/03/13 09:40:17;;;;;;;18.30;9.07;;;;;;;1.16;50.57;95900.00;5110139;27;20067;-47
2022/03/13 09:42:44;;;;;;;15.20;8.52;;;;;;;1.41;50.18;95895.13;5110342;27;20123;-47
2022/03/13 09:45:12;;;;;;;10.57;7.18;;;;;;;1.61;49.55;95893.97;5107829;27;20043;-46
2022/03/13 09:47:39;;;;;;;17.38;8.02;;;;;;;1.89;48.02;95881.00;5111493;27;20111;-47
2022/03/13 09:50:08;;;;;;;13.02;7.05;;;;;;;2.29;46.50;95884.78;5110689;27;20040;-49
2022/03/13 09:52:37;;;;;;;17.02;7.75;;;;;;;2.40;46.71;95884.50;5110776;27;20560;-48
2022/03/13 09:55:05;;;;;;;17.13;8.95;;;;;;;2.41;45.16;95877.59;5110039;27;20040;-50
2022/03/13 09:57:34;;;;;;;11.75;6.28;;;;;;;2.36;44.18;95877.25;5111816;27;20044;-51
2022/03/13 10:00:05;;;;;;;18.63;8.23;;;;;;;2.33;44.87;95873.22;5110103;27;20522;-47
2022/03/13 10:02:38;;;;;;;17.98;8.20;;;;;;;2.42;43.98;95879.22;5111273;27;20055;-47
2022/03/13 10:05:17;;;;;;;16.33;7.70;;;;;;;2.53;43.43;95875.56;5111266;27;20040;-47
2022/03/13 10:07:54;;;;;;;15.85;6.82;;;;;;;2.59;43.46;95870.63;5111016;27;20088;-50
2022/03/13 10:10:23;;;;;;;18.08;7.47;;;;;;;2.78;44.30;95872.09;5108589;27;20040;-48
2022/03/13 10:12:50;;;;;;;23.48;7.07;;;;;;;2.76;43.35;95868.88;5117410;27;20118;-47
2022/03/13 10:15:17;;;;;;;11.70;7.07;;;;;;;2.89;42.38;95863.28;5113065;27;20489;-46
2022/03/13 10:17:44;;;;;;;19.27;8.23;;;;;;;2.89;40.85;95867.63;5112527;27;20513;-45
2022/03/13 10:20:24;;;;;;;14.43;6.82;;;;;;;3.15;40.31;95863.19;5109526;27;20048;-51
2022/03/13 10:23:10;;;;;;;20.27;6.45;;;;;;;3.03;39.77;95867.03;5108067;27;20047;-51
2022/03/13 10:25:39;;;;;;;14.82;7.03;;;;;;;3.22;39.88;95864.16;5110927;27;20031;-46
2022/03/13 10:28:18;;;;;;;24.65;9.10;;;;;;;3.15;39.56;95862.38;5114584;27;20417;-47
2022/03/13 10:30:48;;;;;;;12.52;6.57;;;;;;;3.21;38.36;95859.97;5111471;27;20097;-46
2022/03/13 10:33:16;;;;;;;17.23;8.23;;;;;;;3.38;39.66;95862.56;5110639;27;20047;-46
2022/03/13 10:35:42;;;;;;;14.90;8.18;;;;;;;3.77;39.83;95861.91;5109194;27;20047;-53
2022/03/13 10:38:15;;;;;;;19.30;9.45;;;;;;;3.95;39.33;95859.94;5107691;27;20516;-47
2022/03/13 10:40:45;;;;;;;15.03;8.73;;;;;;;3.78;39.02;95853.19;5107461;27;20104;-46
2022/03/13 10:43:19;;;;;;;30.42;10.82;;;;;;;3.76;38.94;95844.81;5109560;27;20047;-47
2022/03/13 10:45:54;;;;;;;51.75;13.93;;;;;;;3.75;39.05;95843.22;5111926;27;20119;-46
2022/03/13 10:48:22;;;;;;;31.38;12.23;;;;;;;3.77;38.57;95846.44;5111517;27;20048;-46
2022/03/13 10:50:51;;;;;;;7.22;3.92;;;;;;;3.72;38.84;95838.41;5111727;27;20484;-47
2022/03/13 10:53:20;;;;;;;16.80;7.53;;;;;;;3.79;39.41;95834.19;5111815;27;20132;-46
2022/03/13 10:56:07;;;;;;;18.73;8.40;;;;;;;4.09;40.43;95840.41;5110558;27;20047;-46
2022/03/13 10:58:38;;;;;;;19.02;9.07;;;;;;;4.18;41.07;95828.31;5107984;27;20043;-46
2022/03/13 11:01:09;;;;;;;13.15;6.43;;;;;;;3.99;39.64;95829.47;5114174;27;20100;-48
2022/03/13 11:03:48;;;;;;;42.00;14.40;;;;;;;4.25;39.11;95829.25;5111604;27;20043;-46
2022/03/13 11:06:15;;;;;;;16.20;8.23;;;;;;;4.07;38.54;95833.81;5112982;27;20245;-48
2022/03/13 11:08:43;;;;;;;16.83;8.35;;;;;;;4.12;37.44;95823.81;5109810;27;20500;-46
2022/03/13 11:11:14;;;;;;;18.08;8.80;;;;;;;4.04;38.45;95827.22;5108860;27;20040;-47
2022/03/13 11:13:42;;;;;;;18.88;6.68;;;;;;;3.80;38.91;95816.00;5112824;27;20093;-49
2022/03/13 11:16:17;;;;;;;19.17;8.80;;;;;;;3.53;39.21;95809.44;5109519;27;20142;-47
2022/03/13 11:18:47;;;;;;;23.05;11.18;;;;;;;3.59;40.33;95803.63;5108645;27;20109;-46
2022/03/13 11:21:14;;;;;;;14.15;7.88;;;;;;;3.79;39.11;95808.44;5106746;27;20059;-48
2022/03/13 11:23:40;;;;;;;17.27;9.07;;;;;;;3.84;39.70;95811.31;5111023;27;20056;-49
2022/03/13 11:26:07;;;;;;;22.92;9.00;;;;;;;3.86;38.73;95814.53;5107896;27;20057;-49
2022/03/13 11:28:35;;;;;;;23.27;10.23;;;;;;;3.81;38.33;95816.78;5113820;27;20043;-49
2022/03/13 11:31:02;;;;;;;15.88;6.95;;;;;;;3.79;38.92;95809.22;5108119;27;20114;-50